createdAt,value
2023-05-07T00:01:29.393Z,3.87
2023-05-07T00:03:57.898Z,3.30
2023-05-07T00:06:30.093Z,6.27
2023-05-07T00:08:59.551Z,3.17
2023-05-07T00:11:28.124Z,3.10
2023-05-07T00:13:56.765Z,5.33
2023-05-07T00:16:25.206Z,3.00
2023-05-07T00:18:55.213Z,2.83
2023-05-07T00:21:23.811Z,3.20
2023-05-07T00:23:53.728Z,3.67
2023-05-07T00:26:22.119Z,3.57
2023-05-07T00:28:50.447Z,7.50
2023-05-07T00:31:18.842Z,3.50
2023-05-07T00:33:47.691Z,7.50
2023-05-07T00:36:16.059Z,4.10
2023-05-07T00:38:44.461Z,4.93
2023-05-07T00:41:14.320Z,5.90
2023-05-07T00:43:42.675Z,3.40
2023-05-07T00:46:11.281Z,4.77
2023-05-07T00:48:39.715Z,3.53
2023-05-07T00:51:08.308Z,4.93
2023-05-07T00:53:37.443Z,3.43
2023-05-07T00:56:07.510Z,5.70
2023-05-07T00:58:37.815Z,4.07
2023-05-07T01:01:06.479Z,6.80
2023-05-07T01:03:34.947Z,5.37
2023-05-07T01:06:05.083Z,3.57
2023-05-07T01:08:36.252Z,3.70
2023-05-07T01:11:05.439Z,3.37
2023-05-07T01:13:34.260Z,5.40
2023-05-07T01:16:04.476Z,14.63
2023-05-07T01:18:33.673Z,3.80
2023-05-07T01:21:04.314Z,5.53
2023-05-07T01:23:36.765Z,3.43
2023-05-07T01:26:05.183Z,5.40
2023-05-07T01:28:33.698Z,6.73
2023-05-07T01:31:05.310Z,3.57
2023-05-07T01:33:37.352Z,4.70
2023-05-07T01:36:07.809Z,3.60
2023-05-07T01:38:38.666Z,7.37
2023-05-07T01:41:07.463Z,2.90
2023-05-07T01:43:36.264Z,5.50
2023-05-07T01:46:06.119Z,6.90
2023-05-07T01:48:35.658Z,4.33
2023-05-07T01:51:04.673Z,3.20
2023-05-07T01:53:39.831Z,3.10
2023-05-07T01:56:08.961Z,3.40
2023-05-07T01:58:37.311Z,7.60
2023-05-07T02:01:05.915Z,6.60
2023-05-07T02:03:34.362Z,5.03
2023-05-07T02:06:02.691Z,3.20
2023-05-07T02:08:32.132Z,8.73
2023-05-07T02:11:01.823Z,3.53
2023-05-07T02:13:32.724Z,3.67
2023-05-07T02:16:01.213Z,2.87
2023-05-07T02:18:29.753Z,3.83
2023-05-07T02:20:58.081Z,3.13
2023-05-07T02:23:26.442Z,2.90
2023-05-07T02:25:54.758Z,3.00
2023-05-07T02:28:24.838Z,5.10
2023-05-07T02:30:53.156Z,3.93
2023-05-07T02:33:21.487Z,4.30
2023-05-07T02:35:49.824Z,6.37
2023-05-07T02:38:18.225Z,3.47
2023-05-07T02:40:46.594Z,3.67
2023-05-07T02:43:15.039Z,7.17
2023-05-07T02:45:45.547Z,2.83
2023-05-07T02:48:13.909Z,2.63
2023-05-07T02:50:42.357Z,4.83
2023-05-07T02:53:10.784Z,2.77
2023-05-07T02:55:39.207Z,3.40
2023-05-07T02:58:07.565Z,8.13
2023-05-07T03:00:36.082Z,11.30
2023-05-07T03:03:05.904Z,5.73
2023-05-07T03:05:34.173Z,5.97
2023-05-07T03:08:02.612Z,3.70
2023-05-07T03:10:30.923Z,4.83
2023-05-07T03:12:59.289Z,2.93
2023-05-07T03:15:27.834Z,3.77
2023-05-07T03:17:56.158Z,4.33
2023-05-07T03:20:26.022Z,3.60
2023-05-07T03:22:54.505Z,8.00
2023-05-07T03:25:23.039Z,6.80
2023-05-07T03:27:51.383Z,7.03
2023-05-07T03:30:20.050Z,5.93
2023-05-07T03:32:48.527Z,3.60
2023-05-07T03:35:17.094Z,3.60
2023-05-07T03:37:46.911Z,11.93
2023-05-07T03:40:15.436Z,7.83
2023-05-07T03:42:43.956Z,5.87
2023-05-07T03:45:12.718Z,5.73
2023-05-07T03:47:41.180Z,6.83
2023-05-07T03:50:10.352Z,4.90
2023-05-07T03:52:38.916Z,3.50
2023-05-07T03:55:09.558Z,4.30
2023-05-07T03:57:37.929Z,5.40
2023-05-07T04:00:07.954Z,4.13
2023-05-07T04:02:36.567Z,3.80
2023-05-07T04:05:05.372Z,3.97
2023-05-07T04:07:33.699Z,9.00
2023-05-07T04:10:02.121Z,4.63
2023-05-07T04:12:32.109Z,3.97
2023-05-07T04:15:00.738Z,3.53
2023-05-07T04:17:29.122Z,10.13
2023-05-07T04:19:57.520Z,4.80
2023-05-07T04:22:25.914Z,3.87
2023-05-07T04:24:54.248Z,3.70
2023-05-07T04:27:22.927Z,11.47
2023-05-07T04:29:52.838Z,3.93
2023-05-07T04:32:21.173Z,3.43
2023-05-07T04:34:49.587Z,5.73
2023-05-07T04:37:18.159Z,6.50
2023-05-07T04:39:46.477Z,6.40
2023-05-07T04:42:18.088Z,3.50
2023-05-07T04:44:47.370Z,9.20
2023-05-07T04:47:17.176Z,4.17
2023-05-07T04:49:45.506Z,11.37
2023-05-07T04:52:13.972Z,5.80
2023-05-07T04:54:42.387Z,8.17
2023-05-07T04:57:10.729Z,4.23
2023-05-07T04:59:39.077Z,5.67
2023-05-07T05:02:07.687Z,7.63
2023-05-07T05:04:37.873Z,11.83
2023-05-07T05:07:06.424Z,8.23
2023-05-07T05:09:34.809Z,9.10
2023-05-07T05:12:03.291Z,4.73
2023-05-07T05:14:31.916Z,4.70
2023-05-07T05:17:00.229Z,5.13
2023-05-07T05:19:28.737Z,4.50
2023-05-07T05:21:58.483Z,11.50
2023-05-07T05:24:26.836Z,4.83
2023-05-07T05:26:56.252Z,5.33
2023-05-07T05:29:24.656Z,5.40
2023-05-07T05:31:53.302Z,6.40
2023-05-07T05:34:22.882Z,4.73
2023-05-07T05:36:51.316Z,4.47
2023-05-07T05:39:22.478Z,19.97
2023-05-07T05:41:50.905Z,4.60
2023-05-07T05:44:19.219Z,6.97
2023-05-07T05:46:47.652Z,4.07
2023-05-07T05:49:16.320Z,5.53
2023-05-07T05:51:45.020Z,5.53
2023-05-07T05:54:13.336Z,4.03
2023-05-07T05:56:43.861Z,4.87
2023-05-07T05:59:12.782Z,5.20
2023-05-07T06:01:41.466Z,4.93
2023-05-07T06:04:09.852Z,4.63
2023-05-07T06:06:38.171Z,14.87
2023-05-07T06:09:06.629Z,6.97
2023-05-07T06:11:35.072Z,4.60
2023-05-07T06:14:05.116Z,5.17
2023-05-07T06:16:33.517Z,5.70
2023-05-07T06:19:01.898Z,4.50
2023-05-07T06:21:30.385Z,4.23
2023-05-07T06:23:58.730Z,13.43
2023-05-07T06:26:27.090Z,5.40
2023-05-07T06:28:55.389Z,5.57
2023-05-07T06:31:25.226Z,4.00
2023-05-07T06:33:55.229Z,4.83
2023-05-07T06:36:23.593Z,4.67
2023-05-07T06:38:51.898Z,12.50
2023-05-07T06:41:20.289Z,4.60
2023-05-07T06:43:48.599Z,3.73
2023-05-07T06:46:17.279Z,4.33
2023-05-07T06:48:47.463Z,7.23
2023-05-07T06:51:15.807Z,4.70
2023-05-07T06:53:44.145Z,4.60
2023-05-07T06:56:12.698Z,4.60
2023-05-07T06:58:41.112Z,5.97
2023-05-07T07:01:09.545Z,4.77
2023-05-07T07:03:37.893Z,5.43
2023-05-07T07:06:07.942Z,4.43
2023-05-07T07:08:36.675Z,4.50
2023-05-07T07:11:05.003Z,5.63
2023-05-07T07:13:33.471Z,5.60
2023-05-07T07:16:02.483Z,4.33
2023-05-07T07:18:30.949Z,4.50
2023-05-07T07:20:59.247Z,7.30
2023-05-07T07:23:29.023Z,4.67
2023-05-07T07:25:57.572Z,7.90
2023-05-07T07:28:25.865Z,4.33
2023-05-07T07:30:54.248Z,6.17
2023-05-07T07:33:22.587Z,4.20
2023-05-07T07:35:51.046Z,7.20
2023-05-07T07:38:19.577Z,4.70
2023-05-07T07:40:50.156Z,7.57
2023-05-07T07:43:18.667Z,6.00
2023-05-07T07:45:47.146Z,11.40
2023-05-07T07:48:15.789Z,8.20
2023-05-07T07:50:45.738Z,8.43
2023-05-07T07:53:14.605Z,4.80
2023-05-07T07:55:43.043Z,9.83
2023-05-07T07:58:13.091Z,8.17
2023-05-07T08:00:41.517Z,13.73
2023-05-07T08:03:12.166Z,11.67
2023-05-07T08:05:40.787Z,5.60
2023-05-07T08:08:09.147Z,6.67
2023-05-07T08:10:39.523Z,7.73
2023-05-07T08:13:08.396Z,5.40
2023-05-07T08:15:38.178Z,5.60
2023-05-07T08:18:06.764Z,5.47
2023-05-07T08:20:40.348Z,5.80
2023-05-07T08:23:09.049Z,9.20
2023-05-07T08:25:38.695Z,6.03
2023-05-07T08:28:09.176Z,4.70
2023-05-07T08:30:39.877Z,6.23
2023-05-07T08:33:08.586Z,3.87
2023-05-07T08:35:37.002Z,4.97
2023-05-07T08:38:05.495Z,4.70
2023-05-07T08:40:39.005Z,5.23
2023-05-07T08:43:08.718Z,4.60
2023-05-07T08:45:37.426Z,4.33
2023-05-07T08:48:12.306Z,4.83
2023-05-07T08:50:41.654Z,5.60
2023-05-07T08:53:10.119Z,5.80
2023-05-07T08:55:38.641Z,5.60
2023-05-07T08:58:06.968Z,4.77
2023-05-07T09:00:35.605Z,6.77
2023-05-07T09:03:04.055Z,5.33
2023-05-07T09:05:33.821Z,5.70
2023-05-07T09:08:02.505Z,4.13
2023-05-07T09:10:32.110Z,4.23
2023-05-07T09:13:00.506Z,6.40
2023-05-07T09:15:29.334Z,6.43
2023-05-07T09:18:03.269Z,4.40
2023-05-07T09:20:34.320Z,4.77
2023-05-07T09:23:02.658Z,5.10
2023-05-07T09:25:32.305Z,4.30
2023-05-07T09:28:01.332Z,8.57
2023-05-07T09:30:31.916Z,4.43
2023-05-07T09:33:01.473Z,4.20
2023-05-07T09:35:30.480Z,5.40
2023-05-07T09:38:04.306Z,5.43
2023-05-07T09:40:33.758Z,3.83
2023-05-07T09:43:12.875Z,4.23
2023-05-07T09:45:41.438Z,6.63
2023-05-07T09:48:11.223Z,4.53
2023-05-07T09:50:50.681Z,4.50
2023-05-07T09:53:20.832Z,5.50
2023-05-07T09:55:49.703Z,5.93
2023-05-07T09:58:21.002Z,6.50
2023-05-07T10:00:50.770Z,16.60
2023-05-07T10:03:21.110Z,8.77
2023-05-07T10:05:50.319Z,7.13
2023-05-07T10:08:21.080Z,35.07
2023-05-07T10:10:49.906Z,31.77
2023-05-07T10:13:19.694Z,36.43
2023-05-07T10:15:49.154Z,9.50
2023-05-07T10:18:19.176Z,92.83
2023-05-07T10:20:49.430Z,8.00
2023-05-07T10:23:25.762Z,12.67
2023-05-07T10:26:00.674Z,21.60
2023-05-07T10:28:35.327Z,10.50
2023-05-07T10:31:18.279Z,4.90
2023-05-07T10:33:49.343Z,7.13
2023-05-07T10:36:18.517Z,6.73
2023-05-07T10:38:48.508Z,8.03
2023-05-07T10:41:18.012Z,5.03
2023-05-07T10:43:48.051Z,21.23
2023-05-07T10:46:18.891Z,4.90
2023-05-07T10:49:09.291Z,5.63
2023-05-07T10:51:38.465Z,4.67
2023-05-07T10:54:26.605Z,6.80
2023-05-07T10:56:55.021Z,11.03
2023-05-07T11:00:31.420Z,6.97
2023-05-07T11:03:10.267Z,7.53
2023-05-07T11:05:39.210Z,6.83
2023-05-07T11:08:07.988Z,10.40
2023-05-07T11:10:57.328Z,7.13
2023-05-07T11:13:44.398Z,10.47
2023-05-07T11:16:24.126Z,10.40
2023-05-07T11:18:54.246Z,8.87
2023-05-07T11:21:41.126Z,8.20
2023-05-07T11:24:11.198Z,9.23
2023-05-07T11:26:51.779Z,11.03
2023-05-07T11:29:22.542Z,7.43
2023-05-07T11:31:52.793Z,9.43
2023-05-07T11:34:25.193Z,10.40
2023-05-07T11:36:54.239Z,12.63
2023-05-07T11:39:40.383Z,8.40
2023-05-07T11:42:27.816Z,7.10
2023-05-07T11:44:56.197Z,10.30
2023-05-07T11:47:24.808Z,11.27
2023-05-07T11:49:54.589Z,6.33
2023-05-07T11:52:24.806Z,5.80
2023-05-07T11:54:53.705Z,6.70
2023-05-07T11:57:23.730Z,6.00
2023-05-07T11:59:55.655Z,11.00
2023-05-07T12:02:26.091Z,6.50
2023-05-07T12:04:55.048Z,4.90
2023-05-07T12:07:23.873Z,6.03
2023-05-07T12:09:52.688Z,4.70
2023-05-07T12:12:22.460Z,7.40
2023-05-07T12:14:51.033Z,6.10
2023-05-07T12:17:19.946Z,4.67
2023-05-07T12:19:49.557Z,4.77
2023-05-07T12:22:18.174Z,9.73
2023-05-07T12:24:47.795Z,9.73
2023-05-07T12:27:16.699Z,6.23
2023-05-07T12:29:49.116Z,11.47
2023-05-07T12:32:20.537Z,6.03
2023-05-07T12:34:49.460Z,5.37
2023-05-07T12:37:18.376Z,10.53
2023-05-07T12:39:50.491Z,4.67
2023-05-07T12:42:24.598Z,7.33
2023-05-07T12:44:54.572Z,4.07
2023-05-07T12:47:23.453Z,4.73
2023-05-07T12:49:52.712Z,9.13
2023-05-07T12:52:21.153Z,8.47
2023-05-07T12:54:50.577Z,10.20
2023-05-07T12:57:22.818Z,7.00
2023-05-07T12:59:51.251Z,6.33
2023-05-07T13:02:21.186Z,3.97
2023-05-07T13:04:49.527Z,8.00
2023-05-07T13:07:17.814Z,5.03
2023-05-07T13:09:46.204Z,8.73
2023-05-07T13:12:14.732Z,5.60
2023-05-07T13:14:43.001Z,6.70
2023-05-07T13:17:11.434Z,5.53
2023-05-07T13:19:41.346Z,5.00
2023-05-07T13:22:09.740Z,8.73
2023-05-07T13:24:38.123Z,6.40
2023-05-07T13:27:06.734Z,12.40
2023-05-07T13:29:35.242Z,15.10
2023-05-07T13:32:03.650Z,8.07
2023-05-07T13:34:31.959Z,6.83
2023-05-07T13:37:02.114Z,5.73
2023-05-07T13:39:30.638Z,5.53
2023-05-07T13:41:59.029Z,3.43
2023-05-07T13:44:27.388Z,4.70
2023-05-07T13:46:56.175Z,10.80
2023-05-07T13:49:25.163Z,7.33
2023-05-07T13:51:53.653Z,8.93
2023-05-07T13:54:23.571Z,4.13
2023-05-07T13:56:51.835Z,6.40
2023-05-07T13:59:20.126Z,10.57
2023-05-07T14:01:49.102Z,5.47
2023-05-07T14:04:17.440Z,5.07
2023-05-07T14:06:46.346Z,7.10
2023-05-07T14:09:14.838Z,8.43
2023-05-07T14:11:44.846Z,15.67
2023-05-07T14:14:13.189Z,4.73
2023-05-07T14:16:41.546Z,8.80
2023-05-07T14:19:09.856Z,6.10
2023-05-07T14:21:38.177Z,5.53
2023-05-07T14:24:08.604Z,4.73
2023-05-07T14:26:37.066Z,6.60
2023-05-07T14:29:06.890Z,8.53
2023-05-07T14:31:35.576Z,4.37
2023-05-07T14:34:03.918Z,6.17
2023-05-07T14:36:32.888Z,7.83
2023-05-07T14:39:01.641Z,4.07
2023-05-07T14:41:29.981Z,4.57
2023-05-07T14:43:59.934Z,9.20
2023-05-07T14:46:29.895Z,4.23
2023-05-07T14:48:59.168Z,3.93
2023-05-07T14:51:29.266Z,4.60
2023-05-07T14:53:57.628Z,6.47
2023-05-07T14:56:26.177Z,8.33
2023-05-07T14:58:54.617Z,5.23
2023-05-07T15:01:23.394Z,11.00
2023-05-07T15:03:53.240Z,7.57
2023-05-07T15:06:21.633Z,10.67
2023-05-07T15:08:50.310Z,6.00
2023-05-07T15:11:18.848Z,10.20
2023-05-07T15:13:47.231Z,20.43
2023-05-07T15:16:15.809Z,7.03
2023-05-07T15:18:44.804Z,7.83
2023-05-07T15:21:14.556Z,6.73
2023-05-07T15:23:45.415Z,9.13
2023-05-07T15:26:13.785Z,4.80
2023-05-07T15:28:42.322Z,5.33
2023-05-07T15:31:10.743Z,11.17
2023-05-07T15:33:39.474Z,8.80
2023-05-07T15:36:08.386Z,6.53
2023-05-07T15:38:38.234Z,8.40
2023-05-07T15:41:06.529Z,7.30
2023-05-07T15:43:34.841Z,12.30
2023-05-07T15:46:03.305Z,7.67
2023-05-07T15:48:31.752Z,8.47
2023-05-07T15:51:01.323Z,10.33
2023-05-07T15:53:29.805Z,9.57
2023-05-07T15:55:59.590Z,29.93
2023-05-07T15:58:28.948Z,119.07
2023-05-07T16:00:57.486Z,15.60
2023-05-07T16:03:25.918Z,437.13
2023-05-07T16:05:54.571Z,30.47
2023-05-07T16:08:23.009Z,80.70
2023-05-07T16:10:51.392Z,55.30
2023-05-07T16:13:21.533Z,46.00
2023-05-07T16:15:49.951Z,9.37
2023-05-07T16:18:18.336Z,11.33
2023-05-07T16:20:47.613Z,18.43
2023-05-07T16:23:16.104Z,9.07
2023-05-07T16:25:44.663Z,8.27
2023-05-07T16:28:13.017Z,7.90
2023-05-07T16:30:44.086Z,8.23
2023-05-07T16:33:12.541Z,8.90
2023-05-07T16:35:40.958Z,9.57
2023-05-07T16:38:11.735Z,9.00
2023-05-07T16:40:40.460Z,12.57
2023-05-07T16:43:08.852Z,8.80
2023-05-07T16:45:37.298Z,12.53
2023-05-07T16:48:08.571Z,7.67
2023-05-07T16:50:37.041Z,7.23
2023-05-07T16:53:07.469Z,9.43
2023-05-07T16:55:39.011Z,7.53
2023-05-07T16:58:07.772Z,9.20
2023-05-07T17:00:49.274Z,7.80
2023-05-07T17:03:20.584Z,13.97
2023-05-07T17:05:49.065Z,10.80
2023-05-07T17:08:17.625Z,17.77
2023-05-07T17:10:46.181Z,11.77
2023-05-07T17:13:14.779Z,12.40
2023-05-07T17:15:43.731Z,9.23
2023-05-07T17:18:12.421Z,15.17
2023-05-07T17:20:42.149Z,7.27
2023-05-07T17:23:10.474Z,6.70
2023-05-07T17:25:39.277Z,7.73
2023-05-07T17:28:07.549Z,6.93
2023-05-07T17:30:35.883Z,12.67
2023-05-07T17:33:19.333Z,9.13
2023-05-07T17:35:51.050Z,7.57
2023-05-07T17:38:19.518Z,12.03
2023-05-07T17:40:48.545Z,13.60
2023-05-07T17:43:17.011Z,19.73
2023-05-07T17:45:45.626Z,9.03
2023-05-07T17:48:14.011Z,5.93
2023-05-07T17:50:42.645Z,7.50
2023-05-07T17:53:12.424Z,5.87
2023-05-07T17:55:43.988Z,12.13
2023-05-07T17:58:12.609Z,6.00
2023-05-07T18:00:41.189Z,7.87
2023-05-07T18:03:09.725Z,11.87
2023-05-07T18:05:39.869Z,9.30
2023-05-07T18:08:08.479Z,7.70
2023-05-07T18:10:40.187Z,12.87
2023-05-07T18:13:08.637Z,13.40
2023-05-07T18:15:37.039Z,12.00
2023-05-07T18:18:05.841Z,13.83
2023-05-07T18:20:34.269Z,9.80
2023-05-07T18:23:02.623Z,10.50
2023-05-07T18:25:31.041Z,8.10
2023-05-07T18:28:00.875Z,13.33
2023-05-07T18:30:29.312Z,16.07
2023-05-07T18:32:57.820Z,8.87
2023-05-07T18:35:26.161Z,18.50
2023-05-07T18:37:54.517Z,16.53
2023-05-07T18:40:22.877Z,13.50
2023-05-07T18:42:51.300Z,19.13
2023-05-07T18:45:21.171Z,10.40
2023-05-07T18:47:49.773Z,17.83
2023-05-07T18:50:18.099Z,12.07
2023-05-07T18:52:46.554Z,12.63
2023-05-07T18:55:14.921Z,16.27
2023-05-07T18:57:44.955Z,22.90
2023-05-07T19:00:14.928Z,9.00
2023-05-07T19:02:44.923Z,9.60
2023-05-07T19:05:13.436Z,10.87
2023-05-07T19:07:41.753Z,12.40
2023-05-07T19:10:11.023Z,10.63
2023-05-07T19:12:39.443Z,14.93
2023-05-07T19:15:08.857Z,15.07
2023-05-07T19:17:37.261Z,12.93
2023-05-07T19:20:08.497Z,12.00
2023-05-07T19:22:36.937Z,10.40
2023-05-07T19:25:05.928Z,11.33
2023-05-07T19:27:34.345Z,8.20
2023-05-07T19:30:03.940Z,11.20
2023-05-07T19:32:32.488Z,21.40
2023-05-07T19:35:00.926Z,118.83
2023-05-07T19:37:30.916Z,245.73
2023-05-07T19:40:05.007Z,462.47
2023-05-07T19:42:33.839Z,389.93
2023-05-07T19:45:04.243Z,654.17
2023-05-07T19:47:32.819Z,240.33
2023-05-07T19:50:01.656Z,96.80
2023-05-07T19:52:31.361Z,110.83
2023-05-07T19:54:59.675Z,17.40
2023-05-07T19:57:28.027Z,13.50
2023-05-07T19:59:56.621Z,30.03
2023-05-07T20:02:25.109Z,13.53
2023-05-07T20:04:55.206Z,11.40
2023-05-07T20:07:23.604Z,13.97
2023-05-07T20:09:53.350Z,18.10
2023-05-07T20:12:22.348Z,12.60
2023-05-07T20:14:50.652Z,9.00
2023-05-07T20:17:19.859Z,8.70
2023-05-07T20:19:48.342Z,10.60
2023-05-07T20:22:16.694Z,9.83
2023-05-07T20:24:45.015Z,16.33
2023-05-07T20:27:16.072Z,14.80
2023-05-07T20:29:44.468Z,11.97
2023-05-07T20:32:15.250Z,12.33
2023-05-07T20:34:43.587Z,8.93
2023-05-07T20:37:14.444Z,10.00
2023-05-07T20:39:42.954Z,16.17
2023-05-07T20:42:11.761Z,11.50
2023-05-07T20:44:41.507Z,14.27
2023-05-07T20:47:10.426Z,11.83
2023-05-07T20:49:38.796Z,11.53
2023-05-07T20:52:07.360Z,10.70
2023-05-07T20:54:40.212Z,15.27
2023-05-07T20:57:08.671Z,9.53
2023-05-07T20:59:40.242Z,11.10
2023-05-07T21:02:10.281Z,10.40
2023-05-07T21:04:38.713Z,10.73
2023-05-07T21:07:07.180Z,10.43
2023-05-07T21:09:35.834Z,8.27
2023-05-07T21:12:04.509Z,9.93
2023-05-07T21:14:33.522Z,10.70
2023-05-07T21:17:02.126Z,11.17
2023-05-07T21:19:32.100Z,8.00
2023-05-07T21:22:01.170Z,10.70
2023-05-07T21:24:29.722Z,15.17
2023-05-07T21:26:58.935Z,13.77
2023-05-07T21:29:27.422Z,11.83
2023-05-07T21:31:55.831Z,11.10
2023-05-07T21:34:24.385Z,9.90
2023-05-07T21:36:54.272Z,15.27
2023-05-07T21:39:25.202Z,5.90
2023-05-07T21:41:53.836Z,11.47
2023-05-07T21:44:22.301Z,10.17
2023-05-07T21:46:50.738Z,6.03
2023-05-07T21:49:19.490Z,8.13
2023-05-07T21:51:47.953Z,5.80
2023-05-07T21:54:17.881Z,12.27
2023-05-07T21:56:47.648Z,6.10
2023-05-07T21:59:17.328Z,7.97
2023-05-07T22:01:46.053Z,10.13
2023-05-07T22:04:14.520Z,8.20
2023-05-07T22:06:42.910Z,5.43
2023-05-07T22:09:11.984Z,13.83
2023-05-07T22:11:42.035Z,9.63
2023-05-07T22:14:10.749Z,8.07
2023-05-07T22:16:40.061Z,11.83
2023-05-07T22:19:08.983Z,9.00
2023-05-07T22:21:37.418Z,10.40
2023-05-07T22:24:07.389Z,8.97
2023-05-07T22:26:35.888Z,9.03
2023-05-07T22:29:06.215Z,4.97
2023-05-07T22:31:34.633Z,8.57
2023-05-07T22:34:03.114Z,9.10
2023-05-07T22:36:31.632Z,6.47
2023-05-07T22:39:00.992Z,7.90
2023-05-07T22:41:29.730Z,6.50
2023-05-07T22:43:59.187Z,13.37
2023-05-07T22:46:29.174Z,10.43
2023-05-07T22:48:57.552Z,11.20
2023-05-07T22:51:26.221Z,9.47
2023-05-07T22:53:54.747Z,8.80
2023-05-07T22:56:23.148Z,5.67
2023-05-07T22:58:51.590Z,14.03
2023-05-07T23:01:20.164Z,5.40
2023-05-07T23:03:50.055Z,8.07
2023-05-07T23:06:18.374Z,6.93
2023-05-07T23:08:46.814Z,5.47
2023-05-07T23:11:15.314Z,8.13
2023-05-07T23:13:43.624Z,7.30
2023-05-07T23:16:12.066Z,4.60
2023-05-07T23:18:40.530Z,7.73
2023-05-07T23:21:10.276Z,6.97
2023-05-07T23:23:38.604Z,7.67
2023-05-07T23:26:07.159Z,4.80
2023-05-07T23:28:35.574Z,5.40
2023-05-07T23:31:03.933Z,5.13
2023-05-07T23:33:32.427Z,6.03
2023-05-07T23:36:01.360Z,7.20
2023-05-07T23:38:31.196Z,4.80
2023-05-07T23:40:59.625Z,5.30
2023-05-07T23:43:28.026Z,8.40
2023-05-07T23:45:56.472Z,5.00
2023-05-07T23:48:24.788Z,6.63
2023-05-07T23:50:53.149Z,7.90
2023-05-07T23:53:21.721Z,6.93
2023-05-07T23:55:52.941Z,5.47
2023-05-07T23:58:21.376Z,6.13
